Time,TemperatureF,DewpointF,PressureIn,WindDirection,WindDirectionDegrees,WindSpeedMPH,WindSpeedGustMPH,Humidity,HourlyPrecipIn,Conditions,Clouds,dailyrainin,SoftwareType,DateUTC
2013-10-09 00:00:00,56.8,34.6,28.64,SE,135,6.3,7.6,43,0.00,,,0.00,VWS V14.01,2013-10-09 05:00:00,
2013-10-09 00:05:00,56.5,34.8,28.67,SSE,158,5.6,9.6,44,0.00,,,0.00,VWS V14.01,2013-10-09 05:05:00,
2013-10-09 00:10:00,55.9,34.9,28.67,SSE,158,6.0,10.3,45,0.00,,,0.00,VWS V14.01,2013-10-09 05:10:00,
2013-10-09 00:15:00,55.8,35.3,28.67,SSE,158,8.7,10.1,46,0.00,,,0.00,VWS V14.01,2013-10-09 05:15:00,
2013-10-09 00:20:00,55.8,35.3,28.67,SSE,158,10.7,11.2,46,0.00,,,0.00,VWS V14.01,2013-10-09 05:20:00,
2013-10-09 00:25:00,55.9,35.5,28.67,SE,135,12.3,12.3,46,0.00,,,0.00,VWS V14.01,2013-10-09 05:25:00,
2013-10-09 00:30:00,56.3,35.8,28.67,SSE,158,8.5,13.9,46,0.00,,,0.00,VWS V14.01,2013-10-09 05:30:00,
2013-10-09 00:35:00,56.7,36.1,28.67,SSE,158,8.1,12.5,46,0.00,,,0.00,VWS V14.01,2013-10-09 05:35:00,
2013-10-09 00:40:00,56.7,35.6,28.67,South,180,5.8,12.1,45,0.00,,,0.00,VWS V14.01,2013-10-09 05:40:00,
2013-10-09 00:45:00,56.3,35.8,28.67,SSW,202,6.5,8.7,46,0.00,,,0.00,VWS V14.01,2013-10-09 05:45:00,
2013-10-09 00:50:00,56.1,35.6,28.67,SSE,158,4.0,8.5,46,0.00,,,0.00,VWS V14.01,2013-10-09 05:50:00,
2013-10-09 00:55:00,55.8,35.3,28.67,SSE,158,6.3,9.4,46,0.00,,,0.00,VWS V14.01,2013-10-09 05:55:00,
2013-10-09 01:00:00,55.8,35.8,28.67,South,180,4.9,8.1,47,0.00,,,0.00,VWS V14.01,2013-10-09 06:00:00,
2013-10-09 01:05:00,55.4,35.5,28.67,SSE,158,4.9,7.4,47,0.00,,,0.00,VWS V14.01,2013-10-09 06:05:00,
2013-10-09 01:10:00,55.0,35.7,28.67,SSE,158,7.8,8.7,48,0.00,,,0.00,VWS V14.01,2013-10-09 06:10:00,
2013-10-09 01:15:00,54.7,35.9,28.67,SSE,158,6.0,12.3,49,0.00,,,0.00,VWS V14.01,2013-10-09 06:15:00,
2013-10-09 01:20:00,54.5,35.8,28.70,South,180,8.7,8.7,49,0.00,,,0.00,VWS V14.01,2013-10-09 06:20:00,
2013-10-09 01:25:00,54.9,36.1,28.70,SSE,158,8.1,10.7,49,0.00,,,0.00,VWS V14.01,2013-10-09 06:25:00,
2013-10-09 01:30:00,55.0,36.2,28.70,SSE,158,7.8,10.7,49,0.00,,,0.00,VWS V14.01,2013-10-09 06:30:00,
2013-10-09 01:35:00,54.7,35.9,28.67,SSE,158,6.0,10.3,49,0.00,,,0.00,VWS V14.01,2013-10-09 06:35:00,
2013-10-09 01:40:00,54.5,36.3,28.67,SSE,158,4.7,8.1,50,0.00,,,0.00,VWS V14.01,2013-10-09 06:40:00,
2013-10-09 01:45:00,54.1,35.9,28.67,SSW,202,5.4,7.8,50,0.00,,,0.00,VWS V14.01,2013-10-09 06:45:00,
2013-10-09 01:50:00,54.0,36.3,28.70,SSE,158,7.4,8.7,51,0.00,,,0.00,VWS V14.01,2013-10-09 06:50:00,
2013-10-09 01:55:00,53.8,36.1,28.70,South,180,5.4,8.5,51,0.00,,,0.00,VWS V14.01,2013-10-09 06:55:00,
2013-10-09 02:00:00,53.6,36.4,28.70,SSE,158,6.5,7.4,52,0.00,,,0.00,VWS V14.01,2013-10-09 07:00:00,
2013-10-09 02:05:00,53.2,36.1,28.70,ESE,112,3.8,6.5,52,0.00,,,0.00,VWS V14.01,2013-10-09 07:05:00,
2013-10-09 02:10:00,52.2,34.6,28.70,SSE,158,4.0,5.8,51,0.00,,,0.00,VWS V14.01,2013-10-09 07:10:00,
2013-10-09 02:15:00,51.3,33.8,28.70,SSE,158,4.0,4.7,51,0.00,,,0.00,VWS V14.01,2013-10-09 07:15:00,
2013-10-09 02:20:00,50.5,35.0,28.70,SSE,158,3.6,4.9,55,0.00,,,0.00,VWS V14.01,2013-10-09 07:20:00,
2013-10-09 02:25:00,50.4,35.7,28.70,SSE,158,4.0,4.7,57,0.00,,,0.00,VWS V14.01,2013-10-09 07:25:00,
2013-10-09 02:30:00,50.7,38.2,28.70,SSE,158,4.9,6.0,62,0.00,,,0.00,VWS V14.01,2013-10-09 07:30:00,
2013-10-09 02:35:00,51.1,38.5,28.70,SSE,158,5.6,6.3,62,0.00,,,0.00,VWS V14.01,2013-10-09 07:35:00,
2013-10-09 02:40:00,51.3,38.7,28.70,SSE,158,6.0,8.7,62,0.00,,,0.00,VWS V14.01,2013-10-09 07:40:00,
2013-10-09 02:45:00,51.3,38.7,28.70,SSE,158,6.3,7.8,62,0.00,,,0.00,VWS V14.01,2013-10-09 07:45:00,
2013-10-09 02:50:00,51.4,38.9,28.70,South,180,7.4,8.5,62,0.00,,,0.00,VWS V14.01,2013-10-09 07:50:00,
2013-10-09 02:55:00,51.4,38.9,28.70,SSE,158,7.8,9.8,62,0.00,,,0.00,VWS V14.01,2013-10-09 07:55:00,
2013-10-09 03:00:00,51.6,39.0,28.70,SSE,158,9.8,9.8,62,0.00,,,0.00,VWS V14.01,2013-10-09 08:00:00,
2013-10-09 03:05:00,52.0,39.0,28.70,SSE,158,10.1,10.1,61,0.00,,,0.00,VWS V14.01,2013-10-09 08:05:00,
2013-10-09 03:10:00,52.2,38.7,28.70,SSE,158,8.1,10.1,60,0.00,,,0.00,VWS V14.01,2013-10-09 08:10:00,
2013-10-09 03:15:00,52.2,38.7,28.70,SSE,158,4.7,8.1,60,0.00,,,0.00,VWS V14.01,2013-10-09 08:15:00,
2013-10-09 03:20:00,52.0,38.5,28.70,SSE,158,4.9,8.1,60,0.00,,,0.00,VWS V14.01,2013-10-09 08:20:00,
2013-10-09 03:25:00,51.6,38.2,28.70,SSE,158,5.6,7.2,60,0.00,,,0.00,VWS V14.01,2013-10-09 08:25:00,
2013-10-09 03:30:00,51.3,38.3,28.70,SSE,158,5.6,6.5,61,0.00,,,0.00,VWS V14.01,2013-10-09 08:30:00,
2013-10-09 03:35:00,51.1,38.1,28.70,SSE,158,3.8,6.0,61,0.00,,,0.00,VWS V14.01,2013-10-09 08:35:00,
2013-10-09 03:40:00,50.7,38.2,28.70,SE,135,4.5,5.8,62,0.00,,,0.00,VWS V14.01,2013-10-09 08:40:00,
2013-10-09 03:45:00,50.7,39.0,28.70,SSE,158,4.0,6.0,64,0.00,,,0.00,VWS V14.01,2013-10-09 08:45:00,
2013-10-09 03:50:00,51.3,40.3,28.70,SSE,158,7.6,8.1,66,0.00,,,0.00,VWS V14.01,2013-10-09 08:50:00,
2013-10-09 03:55:00,51.6,40.2,28.70,South,180,6.3,8.7,65,0.00,,,0.00,VWS V14.01,2013-10-09 08:55:00,
2013-10-09 04:00:00,51.6,39.8,28.70,SSE,158,7.6,8.1,64,0.00,,,0.00,VWS V14.01,2013-10-09 09:00:00,
2013-10-09 04:01:00,51.6,39.8,28.70,SSE,158,7.6,8.1,64,0.00,,,0.00,VWS V14.01,2013-10-09 09:01:00,
2013-10-09 04:05:00,51.3,39.1,28.70,SSE,158,7.2,7.6,63,0.00,,,0.00,VWS V14.01,2013-10-09 09:05:00,
2013-10-09 04:10:00,50.9,39.2,28.70,SSE,158,4.9,7.4,64,0.00,,,0.00,VWS V14.01,2013-10-09 09:10:00,
2013-10-09 04:15:00,51.1,40.1,28.70,SSE,158,5.6,7.6,66,0.00,,,0.00,VWS V14.01,2013-10-09 09:15:00,
2013-10-09 04:20:00,52.0,38.5,28.70,SSE,158,4.9,8.1,60,0.00,,,0.00,VWS V14.01,2013-10-09 09:20:00,
2013-10-09 04:25:00,51.6,38.2,28.70,SSE,158,5.6,7.2,60,0.00,,,0.00,VWS V14.01,2013-10-09 09:25:00,
2013-10-09 04:30:00,51.3,38.3,28.70,SSE,158,5.6,6.5,61,0.00,,,0.00,VWS V14.01,2013-10-09 09:30:00,
2013-10-09 04:35:00,51.8,40.0,28.70,SSE,158,6.5,9.0,64,0.00,,,0.00,VWS V14.01,2013-10-09 09:35:00,
2013-10-09 04:40:00,51.6,39.8,28.70,SSE,158,5.8,8.7,64,0.00,,,0.00,VWS V14.01,2013-10-09 09:40:00,
2013-10-09 04:45:00,51.4,40.1,28.70,SSE,158,3.8,7.4,65,0.00,,,0.00,VWS V14.01,2013-10-09 09:45:00,
2013-10-09 04:50:00,50.9,39.2,28.70,SSE,158,3.8,5.6,64,0.00,,,0.00,VWS V14.01,2013-10-09 09:50:00,
2013-10-09 04:55:00,50.5,38.8,28.70,SE,135,4.3,4.9,64,0.00,,,0.00,VWS V14.01,2013-10-09 09:55:00,
2013-10-09 05:00:00,50.5,39.6,28.70,SSE,158,5.4,8.5,66,0.00,,,0.00,VWS V14.01,2013-10-09 10:00:00,
2013-10-09 05:05:00,50.2,39.3,28.70,SE,135,3.6,5.8,66,0.00,,,0.00,VWS V14.01,2013-10-09 10:05:00,
2013-10-09 05:10:00,50.0,39.5,28.70,SSE,158,4.3,5.6,67,0.00,,,0.00,VWS V14.01,2013-10-09 10:10:00,
2013-10-09 05:15:00,49.5,39.0,28.70,SSE,158,3.6,4.3,67,0.00,,,0.00,VWS V14.01,2013-10-09 10:15:00,
2013-10-09 05:20:00,49.3,39.2,28.70,SE,135,4.5,5.8,68,0.00,,,0.00,VWS V14.01,2013-10-09 10:20:00,
2013-10-09 05:25:00,49.3,39.6,28.70,SSE,158,4.3,5.4,69,0.00,,,0.00,VWS V14.01,2013-10-09 10:25:00,
2013-10-09 05:30:00,49.5,40.5,28.70,SSE,158,2.9,6.0,71,0.00,,,0.00,VWS V14.01,2013-10-09 10:30:00,
2013-10-09 05:35:00,49.6,41.0,28.70,SE,135,4.0,6.5,72,0.00,,,0.00,VWS V14.01,2013-10-09 10:35:00,
2013-10-09 05:40:00,49.6,41.3,28.70,SE,135,3.8,5.8,73,0.00,,,0.00,VWS V14.01,2013-10-09 10:40:00,
2013-10-09 05:45:00,49.5,40.8,28.70,SSE,158,4.0,4.9,72,0.00,,,0.00,VWS V14.01,2013-10-09 10:45:00,
2013-10-09 05:50:00,49.3,40.7,28.70,SE,135,4.0,5.6,72,0.00,,,0.00,VWS V14.01,2013-10-09 10:50:00,
2013-10-09 05:55:00,49.3,40.3,28.70,SSE,158,2.5,4.7,71,0.00,,,0.00,VWS V14.01,2013-10-09 10:55:00,
2013-10-09 06:00:00,49.1,40.5,28.70,SE,135,3.1,4.9,72,0.00,,,0.00,VWS V14.01,2013-10-09 11:00:00,
2013-10-09 06:05:00,48.9,40.3,28.70,SSE,158,3.8,4.7,72,0.00,,,0.00,VWS V14.01,2013-10-09 11:05:00,
2013-10-09 06:10:00,48.9,40.3,28.70,SSE,158,4.0,5.4,72,0.00,,,0.00,VWS V14.01,2013-10-09 11:10:00,
2013-10-09 06:15:00,48.7,40.5,28.70,SE,135,4.0,5.6,73,0.00,,,0.00,VWS V14.01,2013-10-09 11:15:00,
2013-10-09 06:20:00,48.7,40.8,28.70,ESE,112,3.8,6.0,74,0.00,,,0.00,VWS V14.01,2013-10-09 11:20:00,
2013-10-09 06:25:00,48.9,41.4,28.70,SSE,158,3.8,6.0,75,0.00,,,0.00,VWS V14.01,2013-10-09 11:25:00,
2013-10-09 06:30:00,48.7,41.2,28.70,SE,135,5.6,6.3,75,0.00,,,0.00,VWS V14.01,2013-10-09 11:30:00,
2013-10-09 06:35:00,48.7,41.5,28.73,SSE,158,3.6,6.5,76,0.00,,,0.00,VWS V14.01,2013-10-09 11:35:00,
2013-10-09 06:40:00,48.7,41.5,28.73,SSE,158,3.8,6.5,76,0.00,,,0.00,VWS V14.01,2013-10-09 11:40:00,
2013-10-09 06:45:00,48.7,41.5,28.73,SSE,158,4.3,5.4,76,0.00,,,0.00,VWS V14.01,2013-10-09 11:45:00,
2013-10-09 06:50:00,48.6,41.0,28.70,SSE,158,4.3,4.7,75,0.00,,,0.00,VWS V14.01,2013-10-09 11:50:00,
2013-10-09 06:55:00,48.4,40.8,28.70,SSE,158,3.8,4.9,75,0.00,,,0.00,VWS V14.01,2013-10-09 11:55:00,
2013-10-09 07:00:00,48.6,41.7,28.70,SSE,158,5.6,5.8,77,0.00,,,0.00,VWS V14.01,2013-10-09 12:00:00,
2013-10-09 07:05:00,48.7,42.2,28.70,SSE,158,3.6,6.3,78,0.00,,,0.00,VWS V14.01,2013-10-09 12:05:00,
2013-10-09 07:10:00,48.9,42.4,28.70,SSE,158,4.3,5.6,78,0.00,,,0.00,VWS V14.01,2013-10-09 12:10:00,
2013-10-09 07:15:00,48.7,42.2,28.70,SSE,158,6.0,6.0,78,0.00,,,0.00,VWS V14.01,2013-10-09 12:15:00,
2013-10-09 07:20:00,48.9,42.4,28.70,SSE,158,4.7,6.7,78,0.00,,,0.00,VWS V14.01,2013-10-09 12:20:00,
2013-10-09 07:25:00,48.9,42.4,28.70,SSE,158,3.8,6.3,78,0.00,,,0.00,VWS V14.01,2013-10-09 12:25:00,
2013-10-09 07:30:00,49.1,42.5,28.70,SSE,158,5.6,8.1,78,0.00,,,0.00,VWS V14.01,2013-10-09 12:30:00,
2013-10-09 07:35:00,49.1,42.5,28.70,SE,135,5.8,6.5,78,0.00,,,0.00,VWS V14.01,2013-10-09 12:35:00,
2013-10-09 07:40:00,49.3,42.7,28.70,SSE,158,6.3,9.2,78,0.00,,,0.00,VWS V14.01,2013-10-09 12:40:00,
2013-10-09 07:45:00,49.5,42.9,28.70,SSE,158,6.7,6.7,78,0.00,,,0.00,VWS V14.01,2013-10-09 12:45:00,
2013-10-09 07:50:00,50.4,43.4,28.70,SE,135,4.9,8.5,77,0.00,,,0.00,VWS V14.01,2013-10-09 12:50:00,
2013-10-09 07:55:00,51.3,43.3,28.70,South,180,6.5,8.7,74,0.00,,,0.00,VWS V14.01,2013-10-09 12:55:00,
2013-10-09 08:00:00,51.6,42.5,28.70,SSE,158,6.0,8.5,71,0.00,,,0.00,VWS V14.01,2013-10-09 13:00:00,
2013-10-09 08:05:00,52.3,42.5,28.70,SE,135,6.3,8.7,69,0.00,,,0.00,VWS V14.01,2013-10-09 13:05:00,
2013-10-09 08:10:00,53.4,42.0,28.70,SSE,158,6.5,8.1,65,0.00,,,0.00,VWS V14.01,2013-10-09 13:10:00,
2013-10-09 08:15:00,54.1,41.0,28.70,SSE,158,6.3,8.5,61,0.00,,,0.00,VWS V14.01,2013-10-09 13:15:00,
2013-10-09 08:20:00,53.4,40.3,28.70,SSE,158,7.8,10.1,61,0.00,,,0.00,VWS V14.01,2013-10-09 13:20:00,
2013-10-09 08:25:00,53.2,40.6,28.70,SSE,158,7.8,10.1,62,0.00,,,0.00,VWS V14.01,2013-10-09 13:25:00,
2013-10-09 08:30:00,53.1,40.8,28.70,SSE,158,7.6,8.7,63,0.00,,,0.00,VWS V14.01,2013-10-09 13:30:00,
2013-10-09 08:35:00,52.9,40.6,28.73,SSE,158,8.1,10.7,63,0.00,,,0.00,VWS V14.01,2013-10-09 13:35:00,
2013-10-09 08:40:00,54.0,41.7,28.73,SSE,158,4.3,10.7,63,0.00,,,0.00,VWS V14.01,2013-10-09 13:40:00,
2013-10-09 08:45:00,55.2,40.7,28.73,SSE,158,6.5,10.1,58,0.00,,,0.00,VWS V14.01,2013-10-09 13:45:00,
2013-10-09 08:50:00,55.4,40.4,28.70,SSE,158,6.9,11.9,57,0.00,,,0.00,VWS V14.01,2013-10-09 13:50:00,
2013-10-09 08:55:00,56.7,40.7,28.70,SSE,158,8.7,12.1,55,0.00,,,0.00,VWS V14.01,2013-10-09 13:55:00,
2013-10-09 09:00:00,57.7,40.2,28.70,SSE,158,11.0,12.1,52,0.00,,,0.00,VWS V14.01,2013-10-09 14:00:00,
2013-10-09 09:05:00,58.3,39.7,28.70,SSE,158,8.1,13.0,50,0.00,,,0.00,VWS V14.01,2013-10-09 14:05:00,
2013-10-09 09:10:00,58.8,39.2,28.70,SSW,202,8.1,14.8,48,0.00,,,0.00,VWS V14.01,2013-10-09 14:10:00,
2013-10-09 09:15:00,59.7,39.5,28.70,South,180,5.8,11.2,47,0.00,,,0.00,VWS V14.01,2013-10-09 14:15:00,
2013-10-09 09:20:00,60.1,39.2,28.73,South,180,8.7,13.2,46,0.00,,,0.00,VWS V14.01,2013-10-09 14:20:00,
2013-10-09 09:25:00,60.3,39.4,28.73,SSE,158,6.5,10.7,46,0.00,,,0.00,VWS V14.01,2013-10-09 14:25:00,
2013-10-09 09:30:00,60.1,38.7,28.73,SSW,202,6.9,13.0,45,0.00,,,0.00,VWS V14.01,2013-10-09 14:30:00,
2013-10-09 09:35:00,60.1,38.7,28.73,South,180,10.1,12.1,45,0.00,,,0.00,VWS V14.01,2013-10-09 14:35:00,
2013-10-09 09:40:00,61.5,39.4,28.73,South,180,9.8,12.5,44,0.00,,,0.00,VWS V14.01,2013-10-09 14:40:00,
2013-10-09 09:45:00,61.9,39.2,28.73,SSE,158,8.7,13.0,43,0.00,,,0.00,VWS V14.01,2013-10-09 14:45:00,
2013-10-09 09:50:00,61.9,38.6,28.73,SSE,158,7.4,15.2,42,0.00,,,0.00,VWS V14.01,2013-10-09 14:50:00,
2013-10-09 09:55:00,62.2,38.3,28.73,South,180,11.4,15.9,41,0.00,,,0.00,VWS V14.01,2013-10-09 14:55:00,
2013-10-09 10:00:00,63.0,38.3,28.73,SSE,158,8.7,18.1,40,0.00,,,0.00,VWS V14.01,2013-10-09 15:00:00,
2013-10-09 10:05:00,63.1,37.8,28.73,SSE,158,15.4,18.6,39,0.00,,,0.00,VWS V14.01,2013-10-09 15:05:00,
2013-10-09 10:10:00,63.1,37.8,28.73,South,180,10.3,19.7,39,0.00,,,0.00,VWS V14.01,2013-10-09 15:10:00,
2013-10-09 10:15:00,64.0,37.9,28.73,SSW,202,12.8,18.8,38,0.00,,,0.00,VWS V14.01,2013-10-09 15:15:00,
2013-10-09 10:20:00,65.3,38.4,28.73,SSW,202,12.5,15.4,37,0.00,,,0.00,VWS V14.01,2013-10-09 15:20:00,
2013-10-09 10:25:00,65.3,37.7,28.73,South,180,13.4,16.1,36,0.00,,,0.00,VWS V14.01,2013-10-09 15:25:00,
2013-10-09 10:30:00,65.5,37.1,28.73,SSE,158,15.2,19.2,35,0.00,,,0.00,VWS V14.01,2013-10-09 15:30:00,
2013-10-09 10:35:00,65.1,36.8,28.73,SSW,202,10.3,17.7,35,0.00,,,0.00,VWS V14.01,2013-10-09 15:35:00,
2013-10-09 10:40:00,66.7,38.2,28.73,SSW,202,9.2,14.5,35,0.00,,,0.00,VWS V14.01,2013-10-09 15:40:00,
2013-10-09 10:45:00,68.0,38.6,28.73,SSE,158,8.5,14.5,34,0.00,,,0.00,VWS V14.01,2013-10-09 15:45:00,
2013-10-09 10:50:00,68.7,38.5,28.73,SSE,158,13.6,15.4,33,0.00,,,0.00,VWS V14.01,2013-10-09 15:50:00,
2013-10-09 10:55:00,68.5,38.3,28.73,SSE,158,17.0,18.8,33,0.00,,,0.00,VWS V14.01,2013-10-09 15:55:00,
2013-10-09 11:00:00,68.9,38.6,28.73,SSE,158,13.0,17.0,33,0.00,,,0.00,VWS V14.01,2013-10-09 16:00:00,
2013-10-09 11:05:00,69.3,39.0,28.73,SSE,158,11.9,16.8,33,0.00,,,0.00,VWS V14.01,2013-10-09 16:05:00,
2013-10-09 11:10:00,69.8,38.6,28.73,SSE,158,11.0,17.7,32,0.00,,,0.00,VWS V14.01,2013-10-09 16:10:00,
2013-10-09 11:15:00,70.3,39.1,28.73,SSE,158,15.4,17.9,32,0.00,,,0.00,VWS V14.01,2013-10-09 16:15:00,
2013-10-09 11:20:00,70.7,39.4,28.73,SSE,158,9.8,18.6,32,0.00,,,0.00,VWS V14.01,2013-10-09 16:20:00,
2013-10-09 11:25:00,71.1,39.7,28.73,SSE,158,6.7,15.7,32,0.00,,,0.00,VWS V14.01,2013-10-09 16:25:00,
2013-10-09 11:30:00,71.6,39.4,28.73,SSE,158,13.2,15.4,31,0.00,,,0.00,VWS V14.01,2013-10-09 16:30:00,
2013-10-09 11:35:00,72.0,39.7,28.73,SSE,158,14.3,16.8,31,0.00,,,0.00,VWS V14.01,2013-10-09 16:35:00,
2013-10-09 11:40:00,72.5,40.2,28.73,SSE,158,12.5,18.8,31,0.00,,,0.00,VWS V14.01,2013-10-09 16:40:00,
2013-10-09 11:45:00,73.0,39.8,28.73,SSE,158,13.2,13.2,30,0.00,,,0.00,VWS V14.01,2013-10-09 16:45:00,
2013-10-09 11:50:00,72.9,39.7,28.73,SSW,202,8.7,16.3,30,0.00,,,0.00,VWS V14.01,2013-10-09 16:50:00,
2013-10-09 11:55:00,73.6,40.3,28.73,South,180,12.5,17.2,30,0.00,,,0.00,VWS V14.01,2013-10-09 16:55:00,
2013-10-09 12:00:00,73.6,39.4,28.73,South,180,10.7,14.8,29,0.00,,,0.00,VWS V14.01,2013-10-09 17:00:00,
2013-10-09 12:05:00,73.9,38.8,28.73,South,180,12.5,16.8,28,0.00,,,0.00,VWS V14.01,2013-10-09 17:05:00,
2013-10-09 12:10:00,74.1,39.0,28.73,SSE,158,11.0,18.8,28,0.00,,,0.00,VWS V14.01,2013-10-09 17:10:00,
2013-10-09 12:15:00,74.5,39.3,28.73,SSE,158,7.8,13.2,28,0.00,,,0.00,VWS V14.01,2013-10-09 17:15:00,
2013-10-09 12:20:00,74.7,38.5,28.73,SSE,158,10.7,16.1,27,0.00,,,0.00,VWS V14.01,2013-10-09 17:20:00,
2013-10-09 12:25:00,75.4,39.1,28.73,SSW,202,7.6,16.6,27,0.00,,,0.00,VWS V14.01,2013-10-09 17:25:00,
2013-10-09 12:30:00,75.7,39.4,28.73,SSE,158,10.5,15.7,27,0.00,,,0.00,VWS V14.01,2013-10-09 17:30:00,
2013-10-09 12:35:00,75.6,38.3,28.73,South,180,10.1,17.2,26,0.00,,,0.00,VWS V14.01,2013-10-09 17:35:00,
2013-10-09 12:40:00,75.7,38.5,28.73,SSE,158,11.0,16.8,26,0.00,,,0.00,VWS V14.01,2013-10-09 17:40:00,
2013-10-09 12:45:00,75.9,37.6,28.73,SSE,158,12.5,15.9,25,0.00,,,0.00,VWS V14.01,2013-10-09 17:45:00,
2013-10-09 12:50:00,76.3,37.9,28.73,SSE,158,9.8,18.1,25,0.00,,,0.00,VWS V14.01,2013-10-09 17:50:00,
2013-10-09 12:55:00,76.6,38.2,28.73,SSE,158,13.2,17.7,25,0.00,,,0.00,VWS V14.01,2013-10-09 17:55:00,
2013-10-09 13:00:00,76.5,38.1,28.73,SSE,158,10.5,19.0,25,0.00,,,0.00,VWS V14.01,2013-10-09 18:00:00,
2013-10-09 13:05:00,76.8,38.4,28.73,SSE,158,15.2,17.5,25,0.00,,,0.00,VWS V14.01,2013-10-09 18:05:00,
2013-10-09 13:10:00,77.2,37.6,28.73,SSE,158,10.7,17.2,24,0.00,,,0.00,VWS V14.01,2013-10-09 18:10:00,
2013-10-09 13:15:00,77.2,37.6,28.73,South,180,7.4,19.7,24,0.00,,,0.00,VWS V14.01,2013-10-09 18:15:00,
2013-10-09 13:20:00,77.5,37.9,28.73,South,180,17.5,18.8,24,0.00,,,0.00,VWS V14.01,2013-10-09 18:20:00,
2013-10-09 13:25:00,77.7,38.1,28.73,SE,135,15.2,17.5,24,0.00,,,0.00,VWS V14.01,2013-10-09 18:25:00,
2013-10-09 13:30:00,77.9,37.2,28.73,SSE,158,10.1,17.7,23,0.00,,,0.00,VWS V14.01,2013-10-09 18:30:00,
2013-10-09 13:35:00,78.3,37.5,28.70,SE,135,15.7,23.9,23,0.00,,,0.00,VWS V14.01,2013-10-09 18:35:00,
2013-10-09 13:40:00,78.3,37.5,28.70,SSE,158,17.7,17.7,23,0.00,,,0.00,VWS V14.01,2013-10-09 18:40:00,
2013-10-09 13:45:00,77.9,37.2,28.70,SE,135,17.0,20.6,23,0.00,,,0.00,VWS V14.01,2013-10-09 18:45:00,
2013-10-09 13:50:00,77.7,37.0,28.70,ESE,112,15.7,23.3,23,0.00,,,0.00,VWS V14.01,2013-10-09 18:50:00,
2013-10-09 13:55:00,77.9,37.2,28.70,SSE,158,17.2,17.5,23,0.00,,,0.00,VWS V14.01,2013-10-09 18:55:00,
2013-10-09 14:00:00,78.1,37.3,28.70,SE,135,21.9,21.9,23,0.00,,,0.00,VWS V14.01,2013-10-09 19:00:00,
2013-10-09 14:05:00,78.1,37.3,28.70,SSE,158,20.1,23.9,23,0.00,,,0.00,VWS V14.01,2013-10-09 19:05:00,
2013-10-09 14:10:00,78.1,37.3,28.70,SSE,158,20.1,20.1,23,0.00,,,0.00,VWS V14.01,2013-10-09 19:10:00,
2013-10-09 14:15:00,78.3,36.3,28.70,SE,135,12.1,22.6,22,0.00,,,0.00,VWS V14.01,2013-10-09 19:15:00,
2013-10-09 14:20:00,78.4,36.5,28.70,SSE,158,17.2,23.9,22,0.00,,,0.00,VWS V14.01,2013-10-09 19:20:00,
2013-10-09 14:25:00,79.0,36.9,28.70,SSE,158,13.2,23.5,22,0.00,,,0.00,VWS V14.01,2013-10-09 19:25:00,
2013-10-09 14:30:00,79.2,35.9,28.70,SSE,158,12.3,20.1,21,0.00,,,0.00,VWS V14.01,2013-10-09 19:30:00,
2013-10-09 14:35:00,79.9,37.7,28.70,SSE,158,15.2,19.5,22,0.00,,,0.00,VWS V14.01,2013-10-09 19:35:00,
2013-10-09 14:40:00,79.5,36.2,28.70,SSE,158,15.2,23.3,21,0.00,,,0.00,VWS V14.01,2013-10-09 19:40:00,
2013-10-09 14:45:00,79.3,36.0,28.70,SSE,158,11.2,20.6,21,0.00,,,0.00,VWS V14.01,2013-10-09 19:45:00,
2013-10-09 14:50:00,79.5,36.2,28.70,SSE,158,12.5,19.7,21,0.00,,,0.00,VWS V14.01,2013-10-09 19:50:00,
2013-10-09 14:55:00,79.9,36.5,28.70,South,180,13.2,23.9,21,0.00,,,0.00,VWS V14.01,2013-10-09 19:55:00,
2013-10-09 15:00:00,79.9,36.5,28.70,SSE,158,12.8,19.9,21,0.00,,,0.00,VWS V14.01,2013-10-09 20:00:00,
2013-10-09 15:05:00,79.5,36.2,28.70,SE,135,19.2,23.3,21,0.00,,,0.00,VWS V14.01,2013-10-09 20:05:00,
2013-10-09 15:10:00,79.3,36.0,28.70,SE,135,15.2,22.6,21,0.00,,,0.00,VWS V14.01,2013-10-09 20:10:00,
2013-10-09 15:15:00,79.2,35.9,28.70,SSE,158,12.5,19.9,21,0.00,,,0.00,VWS V14.01,2013-10-09 20:15:00,
2013-10-09 15:20:00,79.9,36.5,28.70,SE,135,11.0,21.3,21,0.00,,,0.00,VWS V14.01,2013-10-09 20:20:00,
2013-10-09 15:25:00,79.5,36.2,28.70,SSE,158,13.4,21.9,21,0.00,,,0.00,VWS V14.01,2013-10-09 20:25:00,
2013-10-09 15:30:00,79.2,35.9,28.70,SSE,158,13.6,25.5,21,0.00,,,0.00,VWS V14.01,2013-10-09 20:30:00,
2013-10-09 15:35:00,79.0,35.8,28.67,SE,135,13.9,19.0,21,0.00,,,0.00,VWS V14.01,2013-10-09 20:35:00,
2013-10-09 15:40:00,79.7,36.3,28.67,SSE,158,14.5,15.7,21,0.00,,,0.00,VWS V14.01,2013-10-09 20:40:00,
2013-10-09 15:45:00,79.3,36.0,28.67,SE,135,15.4,21.5,21,0.00,,,0.00,VWS V14.01,2013-10-09 20:45:00,
2013-10-09 15:50:00,79.7,36.3,28.67,SSE,158,17.5,17.7,21,0.00,,,0.00,VWS V14.01,2013-10-09 20:50:00,
2013-10-09 15:55:00,80.1,36.7,28.67,ESE,112,10.7,17.5,21,0.00,,,0.00,VWS V14.01,2013-10-09 20:55:00,
2013-10-09 16:00:00,80.2,36.8,28.67,SSE,158,15.2,19.5,21,0.00,,,0.00,VWS V14.01,2013-10-09 21:00:00,
2013-10-09 16:05:00,79.5,36.2,28.67,SE,135,12.8,17.5,21,0.00,,,0.00,VWS V14.01,2013-10-09 21:05:00,
2013-10-09 16:10:00,79.7,36.3,28.67,South,180,12.1,18.1,21,0.00,,,0.00,VWS V14.01,2013-10-09 21:10:00,
2013-10-09 16:15:00,79.3,34.8,28.67,South,180,21.0,23.9,20,0.00,,,0.00,VWS V14.01,2013-10-09 21:15:00,
2013-10-09 16:20:00,79.0,34.5,28.67,SSE,158,11.0,24.2,20,0.00,,,0.00,VWS V14.01,2013-10-09 21:20:00,
2013-10-09 16:25:00,79.3,34.8,28.67,SSE,158,16.8,18.6,20,0.00,,,0.00,VWS V14.01,2013-10-09 21:25:00,
2013-10-09 16:30:00,78.8,34.4,28.67,SSE,158,11.0,19.9,20,0.00,,,0.00,VWS V14.01,2013-10-09 21:30:00,
2013-10-09 16:35:00,78.8,34.4,28.67,SSE,158,21.3,21.3,20,0.00,,,0.00,VWS V14.01,2013-10-09 21:35:00,
2013-10-09 16:40:00,78.8,34.4,28.67,SSE,158,16.6,21.3,20,0.00,,,0.00,VWS V14.01,2013-10-09 21:40:00,
2013-10-09 16:45:00,78.6,35.5,28.67,SSE,158,15.4,18.1,21,0.00,,,0.00,VWS V14.01,2013-10-09 21:45:00,
2013-10-09 16:50:00,78.4,35.3,28.67,SSE,158,11.0,20.1,21,0.00,,,0.00,VWS V14.01,2013-10-09 21:50:00,
2013-10-09 16:55:00,78.1,35.0,28.67,SSE,158,15.2,20.8,21,0.00,,,0.00,VWS V14.01,2013-10-09 21:55:00,
2013-10-09 17:00:00,78.1,35.0,28.67,SSE,158,10.3,19.2,21,0.00,,,0.00,VWS V14.01,2013-10-09 22:00:00,
2013-10-09 17:05:00,77.7,33.5,28.67,South,180,19.7,23.3,20,0.00,,,0.00,VWS V14.01,2013-10-09 22:05:00,
2013-10-09 17:10:00,77.5,34.6,28.67,SSE,158,15.2,19.9,21,0.00,,,0.00,VWS V14.01,2013-10-09 22:10:00,
2013-10-09 17:15:00,77.5,34.6,28.67,SSE,158,13.0,19.5,21,0.00,,,0.00,VWS V14.01,2013-10-09 22:15:00,
2013-10-09 17:20:00,77.4,34.4,28.67,SSE,158,12.3,17.7,21,0.00,,,0.00,VWS V14.01,2013-10-09 22:20:00,
2013-10-09 17:25:00,77.2,34.3,28.67,SSE,158,15.9,16.8,21,0.00,,,0.00,VWS V14.01,2013-10-09 22:25:00,
2013-10-09 17:30:00,76.8,34.0,28.67,SE,135,13.2,17.0,21,0.00,,,0.00,VWS V14.01,2013-10-09 22:30:00,
2013-10-09 17:35:00,76.5,33.7,28.67,SSE,158,10.5,15.2,21,0.00,,,0.00,VWS V14.01,2013-10-09 22:35:00,
2013-10-09 17:40:00,76.1,33.4,28.67,SSE,158,11.0,20.1,21,0.00,,,0.00,VWS V14.01,2013-10-09 22:40:00,
2013-10-09 17:45:00,75.9,33.2,28.67,SE,135,17.7,17.7,21,0.00,,,0.00,VWS V14.01,2013-10-09 22:45:00,
2013-10-09 17:50:00,75.7,33.1,28.67,SSE,158,11.0,17.7,21,0.00,,,0.00,VWS V14.01,2013-10-09 22:50:00,
2013-10-09 17:55:00,75.6,34.1,28.67,SSE,158,10.1,16.3,22,0.00,,,0.00,VWS V14.01,2013-10-09 22:55:00,
2013-10-09 18:00:00,75.0,33.6,28.67,SSE,158,13.2,17.7,22,0.00,,,0.00,VWS V14.01,2013-10-09 23:00:00,
2013-10-09 18:05:00,74.7,33.3,28.67,SSE,158,10.3,16.6,22,0.00,,,0.00,VWS V14.01,2013-10-09 23:05:00,
2013-10-09 18:10:00,73.9,32.7,28.67,SSE,158,7.8,17.2,22,0.00,,,0.00,VWS V14.01,2013-10-09 23:10:00,
2013-10-09 18:15:00,73.8,32.6,28.67,SSE,158,7.8,14.5,22,0.00,,,0.00,VWS V14.01,2013-10-09 23:15:00,
2013-10-09 18:20:00,73.0,33.1,28.67,SSE,158,6.5,11.0,23,0.00,,,0.00,VWS V14.01,2013-10-09 23:20:00,
2013-10-09 18:25:00,72.3,32.5,28.67,SSE,158,6.3,12.1,23,0.00,,,0.00,VWS V14.01,2013-10-09 23:25:00,
2013-10-09 18:30:00,71.2,31.6,28.67,SE,135,8.5,9.8,23,0.00,,,0.00,VWS V14.01,2013-10-09 23:30:00,
2013-10-09 18:35:00,70.2,31.7,28.67,SE,135,7.6,10.3,24,0.00,,,0.00,VWS V14.01,2013-10-09 23:35:00,
2013-10-09 18:40:00,69.3,31.0,28.67,SSE,158,12.5,12.5,24,0.00,,,0.00,VWS V14.01,2013-10-09 23:40:00,
2013-10-09 18:45:00,68.5,31.4,28.67,SE,135,10.1,12.5,25,0.00,,,0.00,VWS V14.01,2013-10-09 23:45:00,
2013-10-09 18:50:00,68.0,30.9,28.67,SE,135,7.4,12.5,25,0.00,,,0.00,VWS V14.01,2013-10-09 23:50:00,
2013-10-09 18:55:00,67.5,31.4,28.67,SE,135,6.5,9.0,26,0.00,,,0.00,VWS V14.01,2013-10-09 23:55:00,
2013-10-09 19:00:00,67.1,32.0,28.67,SSE,158,8.7,13.2,27,0.00,,,0.00,VWS V14.01,2013-10-10 00:00:00,
2013-10-09 19:05:00,66.6,32.5,28.67,ESE,112,5.6,9.8,28,0.00,,,0.00,VWS V14.01,2013-10-10 00:05:00,
2013-10-09 19:10:00,65.7,32.6,28.67,SE,135,4.9,6.5,29,0.00,,,0.00,VWS V14.01,2013-10-10 00:10:00,
2013-10-09 19:15:00,65.1,33.8,28.67,SSE,158,6.3,9.8,31,0.00,,,0.00,VWS V14.01,2013-10-10 00:15:00,
2013-10-09 19:20:00,64.8,35.0,28.67,ESE,112,6.9,10.3,33,0.00,,,0.00,VWS V14.01,2013-10-10 00:20:00,
2013-10-09 19:25:00,64.6,34.8,28.67,SE,135,6.5,10.5,33,0.00,,,0.00,VWS V14.01,2013-10-10 00:25:00,
2013-10-09 19:30:00,64.4,34.7,28.67,SE,135,6.5,10.1,33,0.00,,,0.00,VWS V14.01,2013-10-10 00:30:00,
2013-10-09 19:35:00,64.0,35.1,28.67,ESE,112,7.4,9.8,34,0.00,,,0.00,VWS V14.01,2013-10-10 00:35:00,
2013-10-09 19:40:00,63.5,34.7,28.67,SE,135,7.6,9.6,34,0.00,,,0.00,VWS V14.01,2013-10-10 00:40:00,
2013-10-09 19:45:00,63.0,34.2,28.67,SE,135,6.3,8.5,34,0.00,,,0.00,VWS V14.01,2013-10-10 00:45:00,
2013-10-09 19:50:00,63.0,34.2,28.67,SE,135,8.5,11.0,34,0.00,,,0.00,VWS V14.01,2013-10-10 00:50:00,
2013-10-09 19:55:00,63.0,34.2,28.67,SSE,158,9.2,11.4,34,0.00,,,0.00,VWS V14.01,2013-10-10 00:55:00,
2013-10-09 20:00:00,63.0,34.2,28.67,SE,135,9.4,11.0,34,0.00,,,0.00,VWS V14.01,2013-10-10 01:00:00,
2013-10-09 20:05:00,63.0,34.2,28.67,SE,135,9.8,11.0,34,0.00,,,0.00,VWS V14.01,2013-10-10 01:05:00,
2013-10-09 20:10:00,62.8,34.0,28.67,SE,135,11.4,11.4,34,0.00,,,0.00,VWS V14.01,2013-10-10 01:10:00,
2013-10-09 20:15:00,62.8,34.0,28.67,SE,135,8.1,11.4,34,0.00,,,0.00,VWS V14.01,2013-10-10 01:15:00,
2013-10-09 20:20:00,63.0,34.2,28.70,SSE,158,13.2,13.2,34,0.00,,,0.00,VWS V14.01,2013-10-10 01:20:00,
2013-10-09 20:25:00,63.0,34.2,28.70,SSE,158,8.1,13.2,34,0.00,,,0.00,VWS V14.01,2013-10-10 01:25:00,
2013-10-09 20:30:00,63.0,34.2,28.70,SE,135,9.2,13.2,34,0.00,,,0.00,VWS V14.01,2013-10-10 01:30:00,
2013-10-09 20:35:00,62.8,34.0,28.70,ESE,112,9.8,13.0,34,0.00,,,0.00,VWS V14.01,2013-10-10 01:35:00,
2013-10-09 20:40:00,62.1,33.4,28.70,SE,135,8.1,10.1,34,0.00,,,0.00,VWS V14.01,2013-10-10 01:40:00,
2013-10-09 20:45:00,61.0,33.2,28.70,ESE,112,6.0,8.1,35,0.00,,,0.00,VWS V14.01,2013-10-10 01:45:00,
2013-10-09 20:50:00,60.1,32.4,28.70,SE,135,5.8,7.6,35,0.00,,,0.00,VWS V14.01,2013-10-10 01:50:00,
2013-10-09 20:55:00,59.4,32.4,28.70,SE,135,6.3,8.1,36,0.00,,,0.00,VWS V14.01,2013-10-10 01:55:00,
2013-10-09 21:00:00,58.5,32.3,28.70,ESE,112,5.6,8.5,37,0.00,,,0.00,VWS V14.01,2013-10-10 02:00:00,
2013-10-09 21:05:00,58.1,33.3,28.70,ESE,112,7.4,8.1,39,0.00,,,0.00,VWS V14.01,2013-10-10 02:05:00,
2013-10-09 21:10:00,58.1,33.9,28.70,ESE,112,9.6,9.6,40,0.00,,,0.00,VWS V14.01,2013-10-10 02:10:00,
2013-10-09 21:15:00,58.8,34.6,28.70,SE,135,8.5,12.3,40,0.00,,,0.00,VWS V14.01,2013-10-10 02:15:00,
2013-10-09 21:20:00,59.2,34.3,28.70,SE,135,8.7,10.7,39,0.00,,,0.00,VWS V14.01,2013-10-10 02:20:00,
2013-10-09 21:25:00,59.5,34.6,28.70,SSE,158,12.8,12.8,39,0.00,,,0.00,VWS V14.01,2013-10-10 02:25:00,
2013-10-09 21:30:00,60.1,34.4,28.70,SE,135,10.3,13.0,38,0.00,,,0.00,VWS V14.01,2013-10-10 02:30:00,
2013-10-09 21:35:00,60.3,34.6,28.70,SSE,158,10.7,12.3,38,0.00,,,0.00,VWS V14.01,2013-10-10 02:35:00,
2013-10-09 21:40:00,60.3,34.6,28.70,SSE,158,10.5,13.2,38,0.00,,,0.00,VWS V14.01,2013-10-10 02:40:00,
2013-10-09 21:45:00,60.6,34.9,28.70,SE,135,10.3,15.4,38,0.00,,,0.00,VWS V14.01,2013-10-10 02:45:00,
2013-10-09 21:50:00,60.6,34.9,28.70,SSE,158,13.0,15.4,38,0.00,,,0.00,VWS V14.01,2013-10-10 02:50:00,
2013-10-09 21:55:00,60.6,34.9,28.70,SSE,158,10.5,15.7,38,0.00,,,0.00,VWS V14.01,2013-10-10 02:55:00,
2013-10-09 22:00:00,60.8,34.4,28.70,ESE,112,13.2,17.2,37,0.00,,,0.00,VWS V14.01,2013-10-10 03:00:00,
2013-10-09 22:05:00,60.6,34.9,28.70,SSE,158,9.8,13.2,38,0.00,,,0.00,VWS V14.01,2013-10-10 03:05:00,
2013-10-09 22:10:00,60.3,34.6,28.70,SSE,158,12.8,15.4,38,0.00,,,0.00,VWS V14.01,2013-10-10 03:10:00,
2013-10-09 22:15:00,60.3,34.6,28.70,SSE,158,10.3,13.4,38,0.00,,,0.00,VWS V14.01,2013-10-10 03:15:00,
2013-10-09 22:20:00,60.3,34.6,28.70,SSE,158,9.8,14.5,38,0.00,,,0.00,VWS V14.01,2013-10-10 03:20:00,
2013-10-09 22:25:00,60.3,34.6,28.70,SSE,158,11.0,13.2,38,0.00,,,0.00,VWS V14.01,2013-10-10 03:25:00,
2013-10-09 22:30:00,60.1,34.4,28.70,SSE,158,10.7,12.3,38,0.00,,,0.00,VWS V14.01,2013-10-10 03:30:00,
2013-10-09 22:35:00,59.9,34.2,28.70,SE,135,9.0,15.2,38,0.00,,,0.00,VWS V14.01,2013-10-10 03:35:00,
2013-10-09 22:40:00,59.5,34.6,28.70,SSE,158,7.4,13.2,39,0.00,,,0.00,VWS V14.01,2013-10-10 03:40:00,
2013-10-09 22:45:00,59.2,34.3,28.70,SSE,158,10.5,12.1,39,0.00,,,0.00,VWS V14.01,2013-10-10 03:45:00,
2013-10-09 22:50:00,59.0,34.7,28.70,SSE,158,6.5,13.2,40,0.00,,,0.00,VWS V14.01,2013-10-10 03:50:00,
2013-10-09 22:55:00,58.8,35.2,28.70,SSE,158,7.8,13.9,41,0.00,,,0.00,VWS V14.01,2013-10-10 03:55:00,
2013-10-09 23:00:00,58.5,34.9,28.70,SSE,158,15.4,15.4,41,0.00,,,0.00,VWS V14.01,2013-10-10 04:00:00,
2013-10-09 23:05:00,58.3,35.3,28.70,SSE,158,5.4,15.4,42,0.00,,,0.00,VWS V14.01,2013-10-10 04:05:00,
2013-10-09 23:10:00,57.7,35.4,28.70,SSE,158,8.7,12.3,43,0.00,,,0.00,VWS V14.01,2013-10-10 04:10:00,
2013-10-09 23:15:00,57.4,35.7,28.70,SSE,158,7.6,10.5,44,0.00,,,0.00,VWS V14.01,2013-10-10 04:15:00,
2013-10-09 23:20:00,57.2,36.1,28.70,SSE,158,6.0,8.5,45,0.00,,,0.00,VWS V14.01,2013-10-10 04:20:00,
2013-10-09 23:25:00,57.0,35.9,28.70,SSE,158,7.8,8.5,45,0.00,,,0.00,VWS V14.01,2013-10-10 04:25:00,
2013-10-09 23:30:00,56.7,36.1,28.70,SSE,158,4.9,7.8,46,0.00,,,0.00,VWS V14.01,2013-10-10 04:30:00,
2013-10-09 23:35:00,56.5,36.0,28.70,South,180,6.9,8.5,46,0.00,,,0.00,VWS V14.01,2013-10-10 04:35:00,
2013-10-09 23:40:00,56.5,36.0,28.70,SSE,158,6.5,8.7,46,0.00,,,0.00,VWS V14.01,2013-10-10 04:40:00,
2013-10-09 23:45:00,56.3,35.8,28.70,SSE,158,5.4,7.8,46,0.00,,,0.00,VWS V14.01,2013-10-10 04:45:00,
2013-10-09 23:50:00,55.9,36.0,28.70,SE,135,5.4,7.2,47,0.00,,,0.00,VWS V14.01,2013-10-10 04:50:00,
2013-10-09 23:55:00,55.2,35.9,28.70,SSE,158,7.6,7.6,48,0.00,,,0.00,VWS V14.01,2013-10-10 04:55:00,